Bob Sikes Airport Crestview US
ICAO: KCEW
IATA: CEW
Category: Medium
Scheduled Services: No

Elevation: 213 ft
TransAlt. 18000 ft.

Airport Communications:
EGLIN APP/DEP:124.05
ASOS:119.275
GAINESVILLE RDO:122
CTAF/UNICOM:122.95

KCEW Zoom In..

If you have problems with the map follow the link
https://www.worldairports.se/pages/airport.php?
ICAO=KCEW

Runways:

(A) RW 17 length 8004 ft width 150 ft
ILS 111.90 / hdg 171

(B) RW 35 length 8004 ft width 150 ft
---- / hdg 351

Location; KCEW
Day. 18 / Time. 23.53 Zulu
* Altimeter: 30.24
* Temperature: 22° c. 71.6°f.
* Wind from: 010° Speed 03 kn.
Dewpoint: 15° c.
Visibility: 10 Statute Miles.
Clouds: Clear (automated report).

KCEW 182353Z AUTO 01003KT 10SM CLR 22/15 A3024 RMK AO2 SLP236 T02220150 10300 20222 53009


Wind From 010°
Speed 03 kn.

 
 
jpsmedia.com for Web Design worldairports.se 2018   terms of use